Hauptseite
METAR-TAF:

METAR-TAF

Flughäfen :

Flughafen Portorož

Portorož, Slowenien

Breite: 45-31N, Länge: 013-34E, Höhe: 95 m

Beobachtung

Neuester Wetterbericht von vor 24 Minuten, um 19:00 UTC
Wind 6 kt aus Südost
Temperatur 10°C
Luftfeuchtigkeit 57%
Luftdruck 1023 hPa
Sichtweite 10 km oder mehr
keine Wolken unter 1500 m und keine Kumulonimbus oder Gewitterwolken

METAR: LJPZ 231900Z 13006KT CAVOK 10/02 Q1023

Zeit: 20:24 (19:24 UTC)

Prognose

Neuester Wetterbericht von vor 2 Stunden und 24 Minuten, um 17:00 UTC
Gültige Prognose vom 23 um 18 UTC bis 24 um 03 UTC
Wind 5 kt aus Ost/Südost
Sichtweite 10 km oder mehr
keine Wolken unter 1500 m und keine Kumulonimbus oder Gewitterwolken

TAF: LJPZ 231700Z 2318/2403 12005KT CAVOK

Wetterbeobachtungen und Prognosen von mehr als 4000 Flughäfen (METAR und TAF Bericht).

Die verfügbaren Stationen werden durch gelbe und rote Markierungen auf der Karte dargestellt.

Führen Sie die Maus auf sie, um den Namen der Station zu sehen.

Darauf klicken, um die Beobachtung von Wetterbeobachtungen und Prognosen zu sehen.

Um die Karte zu ändern : klicken Sie auf den grünen Tasten mit einem schwarzen Kreuz Zum Vergrößern, auf den grünen Button mit einem Gedankenstrich zu verkleinern, oder auf die grünen Pfeile für benachbarte Karten.


METAR-TAF: